Time;durP1;ratioP1;P1;durP2;ratioP2;P2;SDS_P1;SDS_P2;PMS_P1;PMS_P2;Temp;Humidity;BMP_temperature;BMP_pressure;BME280_temperature;BME280_humidity;BME280_pressure;Samples;Min_cycle;Max_cycle;Signal;HPM_P1;HPM_P2
2021/12/15 00:01:35;;;;;;;4.68;1.65;;;;;;;;;;5075471;28;20016;-72
2021/12/15 00:04:03;;;;;;;7.05;1.85;;;;;;;;;;5075546;28;20044;-72
2021/12/15 00:06:30;;;;;;;8.18;1.23;;;;;;;;;;5075434;28;20388;-72
2021/12/15 00:08:59;;;;;;;7.72;1.58;;;;;;;;;;5074055;28;20082;-71
2021/12/15 00:11:36;;;;;;;6.45;1.55;;;;;;;;;;5073867;28;20033;-72
2021/12/15 00:14:08;;;;;;;6.05;1.33;;;;;;;;;;5073913;28;20032;-73
2021/12/15 00:16:35;;;;;;;7.43;1.60;;;;;;;;;;5075262;28;20112;-72
2021/12/15 00:19:03;;;;;;;6.20;1.70;;;;;;;;;;5075270;28;20027;-73
2021/12/15 00:21:31;;;;;;;3.80;1.48;;;;;;;;;;5073489;28;20049;-72
2021/12/15 00:23:58;;;;;;;9.90;1.85;;;;;;;;;;5073759;28;20028;-72
2021/12/15 00:26:25;;;;;;;5.88;1.80;;;;;;;;;;5075016;28;20047;-72
2021/12/15 00:28:53;;;;;;;6.53;1.58;;;;;;;;;;5073715;28;20528;-72
2021/12/15 00:31:20;;;;;;;5.40;1.38;;;;;;;;;;5073488;28;20159;-73
2021/12/15 00:33:48;;;;;;;7.03;1.70;;;;;;;;;;5073907;28;20071;-72
2021/12/15 00:36:15;;;;;;;5.53;1.20;;;;;;;;;;5074806;28;20021;-72
2021/12/15 00:38:42;;;;;;;6.78;1.70;;;;;;;;;;5073433;28;20089;-73
2021/12/15 00:41:10;;;;;;;4.93;1.40;;;;;;;;;;5073478;28;20055;-73
2021/12/15 00:43:38;;;;;;;6.35;1.60;;;;;;;;;;5073292;28;20032;-74
2021/12/15 00:46:05;;;;;;;6.72;1.45;;;;;;;;;;5074798;28;20021;-73
2021/12/15 00:48:33;;;;;;;6.80;1.40;;;;;;;;;;5073262;28;20416;-73
2021/12/15 00:51:00;;;;;;;5.57;1.58;;;;;;;;;;5073148;28;20024;-74
2021/12/15 00:53:28;;;;;;;6.78;1.40;;;;;;;;;;5074479;28;20021;-73
2021/12/15 00:55:55;;;;;;;6.63;1.23;;;;;;;;;;5074548;28;20380;-73
2021/12/15 00:58:22;;;;;;;6.47;1.42;;;;;;;;;;5074438;28;20019;-73
2021/12/15 01:00:51;;;;;;;8.40;2.22;;;;;;;;;;5074418;28;20024;-74
2021/12/15 01:03:18;;;;;;;9.50;1.73;;;;;;;;;;5074258;28;20025;-74
2021/12/15 01:05:47;;;;;;;8.90;1.80;;;;;;;;;;5074322;28;20115;-73
2021/12/15 01:08:20;;;;;;;7.07;1.73;;;;;;;;;;5072780;28;20035;-73
2021/12/15 01:11:02;;;;;;;6.93;1.38;;;;;;;;;;5074128;28;20032;-73
2021/12/15 01:21:49;;;;;;;5.82;1.63;;;;;;;;;;5072886;28;20409;-74
2021/12/15 01:24:17;;;;;;;7.68;1.80;;;;;;;;;;5072747;28;20416;-74
2021/12/15 01:26:44;;;;;;;5.60;1.60;;;;;;;;;;5072444;28;20027;-73
2021/12/15 01:29:11;;;;;;;6.25;1.60;;;;;;;;;;5073849;28;20473;-74
2021/12/15 01:31:39;;;;;;;4.93;1.40;;;;;;;;;;5073714;28;20029;-74
2021/12/15 01:34:06;;;;;;;4.80;1.35;;;;;;;;;;5072293;28;20509;-73
2021/12/15 01:36:33;;;;;;;6.40;1.63;;;;;;;;;;5072315;28;20021;-73
2021/12/15 01:39:00;;;;;;;5.80;1.40;;;;;;;;;;5073588;28;20031;-74
2021/12/15 01:41:28;;;;;;;5.97;1.23;;;;;;;;;;5072207;28;20059;-73
2021/12/15 01:46:57;;;;;;;3.58;1.25;;;;;;;;;;5073440;28;20081;-73
2021/12/15 01:49:24;;;;;;;5.03;1.25;;;;;;;;;;5072106;28;20029;-74
2021/12/15 01:51:51;;;;;;;5.00;1.15;;;;;;;;;;5072030;28;20077;-73
2021/12/15 01:54:20;;;;;;;6.15;1.70;;;;;;;;;;5073327;28;20096;-73
2021/12/15 01:56:47;;;;;;;9.00;1.38;;;;;;;;;;5073362;28;20434;-74
2021/12/15 01:59:17;;;;;;;5.43;1.35;;;;;;;;;;5073273;28;20468;-73
2021/12/15 02:01:44;;;;;;;6.60;1.40;;;;;;;;;;5071907;28;20370;-74
2021/12/15 02:04:11;;;;;;;4.45;1.58;;;;;;;;;;5073167;28;20428;-74
2021/12/15 02:06:42;;;;;;;4.47;1.42;;;;;;;;;;5073287;28;20440;-74
2021/12/15 02:09:10;;;;;;;4.78;1.48;;;;;;;;;;5071749;28;20025;-74
2021/12/15 02:11:37;;;;;;;4.68;1.17;;;;;;;;;;5073112;28;20027;-73
2021/12/15 02:14:05;;;;;;;6.10;1.25;;;;;;;;;;5073093;28;20035;-73
2021/12/15 02:16:32;;;;;;;4.03;1.10;;;;;;;;;;5073078;28;20016;-73
2021/12/15 02:18:59;;;;;;;5.70;1.38;;;;;;;;;;5072932;28;20028;-73
2021/12/15 02:21:27;;;;;;;5.47;1.00;;;;;;;;;;5071363;28;20097;-73
2021/12/15 02:23:57;;;;;;;4.22;1.10;;;;;;;;;;5072976;28;20430;-72
2021/12/15 02:26:27;;;;;;;5.75;1.42;;;;;;;;;;5071503;28;20481;-73
2021/12/15 02:28:56;;;;;;;6.22;1.27;;;;;;;;;;5071506;28;20029;-72
2021/12/15 02:34:06;;;;;;;5.17;1.00;;;;;;;;;;5072912;28;20055;-73
2021/12/15 02:39:18;;;;;;;7.63;1.40;;;;;;;;;;5073025;28;20027;-72
2021/12/15 02:41:46;;;;;;;3.25;0.88;;;;;;;;;;5071337;28;20028;-73
2021/12/15 02:44:17;;;;;;;4.03;0.80;;;;;;;;;;5071411;28;20024;-73
2021/12/15 02:46:45;;;;;;;4.40;1.05;;;;;;;;;;5071360;28;20036;-73
2021/12/15 02:49:14;;;;;;;5.18;1.23;;;;;;;;;;5072841;28;20016;-73
2021/12/15 02:51:42;;;;;;;6.35;0.90;;;;;;;;;;5071277;28;20047;-74
2021/12/15 02:54:12;;;;;;;7.65;1.23;;;;;;;;;;5071334;28;20031;-73
2021/12/15 02:56:40;;;;;;;5.40;0.90;;;;;;;;;;5071360;28;20190;-73
2021/12/15 02:59:09;;;;;;;5.97;1.33;;;;;;;;;;5076800;28;20017;-74
2021/12/15 03:01:57;;;;;;;5.55;1.30;;;;;;;;;;5076701;28;20029;-72
2021/12/15 03:04:41;;;;;;;6.10;1.30;;;;;;;;;;5075262;28;20493;-73
2021/12/15 03:07:15;;;;;;;4.40;1.10;;;;;;;;;;5075161;28;20062;-74
2021/12/15 03:17:59;;;;;;;6.70;1.40;;;;;;;;;;5076352;28;20025;-74
2021/12/15 03:20:28;;;;;;;5.93;1.27;;;;;;;;;;5076034;28;20041;-74
2021/12/15 03:22:55;;;;;;;7.88;1.20;;;;;;;;;;5076305;28;20576;-73
2021/12/15 03:25:25;;;;;;;4.30;1.10;;;;;;;;;;5074809;28;20131;-73
2021/12/15 03:33:36;;;;;;;7.53;1.55;;;;;;;;;;5076343;28;20082;-73
2021/12/15 03:36:11;;;;;;;4.53;1.30;;;;;;;;;;5075983;28;20099;-73
2021/12/15 03:38:39;;;;;;;5.97;1.25;;;;;;;;;;5075955;28;20021;-74
2021/12/15 03:41:07;;;;;;;5.70;1.55;;;;;;;;;;5075962;28;20029;-74
2021/12/15 03:43:36;;;;;;;4.72;1.00;;;;;;;;;;5075920;28;20056;-74
2021/12/15 03:46:09;;;;;;;6.13;1.33;;;;;;;;;;5074477;28;20048;-74
2021/12/15 03:48:38;;;;;;;4.35;0.90;;;;;;;;;;5074364;28;20033;-74
2021/12/15 03:51:05;;;;;;;6.28;0.90;;;;;;;;;;5075646;28;20024;-74
2021/12/15 03:53:33;;;;;;;5.35;1.10;;;;;;;;;;5075566;28;20049;-74
2021/12/15 03:56:01;;;;;;;3.95;1.15;;;;;;;;;;5074133;28;20029;-74
2021/12/15 03:58:28;;;;;;;3.95;0.70;;;;;;;;;;5074064;28;20025;-75
2021/12/15 04:01:02;;;;;;;4.03;0.90;;;;;;;;;;5075630;28;20032;-73
2021/12/15 04:03:33;;;;;;;4.18;0.77;;;;;;;;;;5075640;28;20384;-74
2021/12/15 04:06:02;;;;;;;3.72;0.73;;;;;;;;;;5075877;28;20106;-74
2021/12/15 04:08:29;;;;;;;5.18;1.00;;;;;;;;;;5075328;28;20028;-73
2021/12/15 04:10:56;;;;;;;3.25;0.80;;;;;;;;;;5073935;28;20063;-74
2021/12/15 04:13:24;;;;;;;3.88;0.88;;;;;;;;;;5075372;28;20017;-74
2021/12/15 04:15:57;;;;;;;5.00;1.00;;;;;;;;;;5075425;28;20024;-73
2021/12/15 04:18:25;;;;;;;3.88;0.80;;;;;;;;;;5075253;28;20027;-73
2021/12/15 04:20:53;;;;;;;5.03;0.85;;;;;;;;;;5073486;28;20051;-74
2021/12/15 04:23:20;;;;;;;4.93;0.70;;;;;;;;;;5075202;28;20092;-74
2021/12/15 04:25:49;;;;;;;4.53;1.05;;;;;;;;;;5073845;28;20373;-72
2021/12/15 04:28:22;;;;;;;3.75;1.23;;;;;;;;;;5073554;28;20035;-73
2021/12/15 04:30:52;;;;;;;2.97;0.93;;;;;;;;;;5073623;28;20124;-73
2021/12/15 04:33:18;;;;;;;;;;;;;;;;;;5075355;28;20423;-73
2021/12/15 04:35:46;;;;;;;3.05;0.68;;;;;;;;;;5074999;28;19904;-75
2021/12/15 04:38:15;;;;;;;4.22;0.73;;;;;;;;;;5073415;28;20485;-75
2021/12/15 04:40:42;;;;;;;4.18;1.00;;;;;;;;;;5073557;28;20493;-75
2021/12/15 04:43:11;;;;;;;3.38;0.80;;;;;;;;;;5073304;28;20021;-74
2021/12/15 04:45:38;;;;;;;3.90;0.90;;;;;;;;;;5073432;28;20062;-73
2021/12/15 04:48:06;;;;;;;3.42;0.80;;;;;;;;;;5073345;28;20138;-74
2021/12/15 04:50:33;;;;;;;5.63;0.93;;;;;;;;;;5073277;28;20024;-75
2021/12/15 04:53:03;;;;;;;3.67;0.85;;;;;;;;;;5074537;28;20390;-74
2021/12/15 04:55:30;;;;;;;4.97;0.80;;;;;;;;;;5074568;28;20031;-72
2021/12/15 04:57:59;;;;;;;4.50;0.77;;;;;;;;;;5073063;28;20623;-74
2021/12/15 05:00:29;;;;;;;6.03;1.20;;;;;;;;;;5073086;28;20024;-74
2021/12/15 05:02:56;;;;;;;5.90;1.00;;;;;;;;;;5073072;28;20035;-74
2021/12/15 05:05:24;;;;;;;4.53;0.82;;;;;;;;;;5072852;28;20025;-74
2021/12/15 05:07:52;;;;;;;2.88;0.90;;;;;;;;;;5072874;28;20031;-74
2021/12/15 05:10:20;;;;;;;2.53;0.82;;;;;;;;;;5074152;28;20070;-74
2021/12/15 05:12:47;;;;;;;3.17;0.85;;;;;;;;;;5072822;28;20540;-74
2021/12/15 05:15:15;;;;;;;2.47;0.65;;;;;;;;;;5072608;28;20129;-74
2021/12/15 05:17:42;;;;;;;4.38;0.70;;;;;;;;;;5072674;28;20477;-73
2021/12/15 05:20:10;;;;;;;6.95;0.73;;;;;;;;;;5073306;28;20382;-73
2021/12/15 05:22:38;;;;;;;4.50;0.85;;;;;;;;;;5074120;28;20033;-75
2021/12/15 05:25:06;;;;;;;3.15;0.80;;;;;;;;;;5073859;28;20020;-74
2021/12/15 05:27:33;;;;;;;5.15;0.77;;;;;;;;;;5074014;28;20025;-73
2021/12/15 05:30:00;;;;;;;3.63;0.75;;;;;;;;;;5072306;28;20035;-72
2021/12/15 05:32:27;;;;;;;2.08;0.60;;;;;;;;;;5072296;28;20112;-73
2021/12/15 05:34:59;;;;;;;3.00;0.77;;;;;;;;;;5073667;28;20021;-73
2021/12/15 05:37:26;;;;;;;4.75;0.82;;;;;;;;;;5073758;28;20084;-73
2021/12/15 05:39:54;;;;;;;4.18;0.85;;;;;;;;;;5073852;28;20016;-73
2021/12/15 05:42:22;;;;;;;3.05;0.77;;;;;;;;;;5073679;28;20028;-73
2021/12/15 05:44:49;;;;;;;5.07;0.95;;;;;;;;;;5072111;28;20438;-73
2021/12/15 05:47:18;;;;;;;2.10;0.55;;;;;;;;;;5072066;28;20035;-74
2021/12/15 05:49:45;;;;;;;4.55;0.60;;;;;;;;;;5073379;28;20020;-74
2021/12/15 05:52:12;;;;;;;2.10;0.55;;;;;;;;;;5073555;28;20098;-73
2021/12/15 05:54:40;;;;;;;4.07;0.90;;;;;;;;;;5073310;28;20047;-73
2021/12/15 05:57:07;;;;;;;4.80;0.90;;;;;;;;;;5072089;28;20067;-72
2021/12/15 05:59:34;;;;;;;2.65;0.50;;;;;;;;;;5071882;28;20025;-72
2021/12/15 06:02:01;;;;;;;4.88;0.82;;;;;;;;;;5073392;28;20028;-72
2021/12/15 06:04:29;;;;;;;3.78;0.98;;;;;;;;;;5071860;28;20029;-72
2021/12/15 06:06:56;;;;;;;2.10;0.70;;;;;;;;;;5071758;28;20112;-72
2021/12/15 06:09:23;;;;;;;2.88;0.70;;;;;;;;;;5071815;28;20111;-73
2021/12/15 06:11:53;;;;;;;2.92;0.55;;;;;;;;;;5073040;28;20025;-72
2021/12/15 06:14:23;;;;;;;;;;;;;;;;;;5072376;28;20504;-73
2021/12/15 06:17:05;;;;;;;4.57;0.93;;;;;;;;;;5071485;28;20365;-72
2021/12/15 06:19:32;;;;;;;4.07;0.82;;;;;;;;;;5071431;28;20102;-73
2021/12/15 06:22:00;;;;;;;3.95;0.98;;;;;;;;;;5072545;28;20431;-73
2021/12/15 06:24:28;;;;;;;2.55;0.63;;;;;;;;;;5072864;28;20429;-73
2021/12/15 06:26:58;;;;;;;2.50;0.70;;;;;;;;;;5071416;28;20059;-73
2021/12/15 06:29:25;;;;;;;5.80;1.40;;;;;;;;;;5072976;28;20029;-73
2021/12/15 06:31:52;;;;;;;3.95;1.08;;;;;;;;;;5070442;28;20078;-73
2021/12/15 06:34:20;;;;;;;4.75;1.00;;;;;;;;;;5071418;28;20431;-74
2021/12/15 06:36:47;;;;;;;2.83;0.75;;;;;;;;;;5072739;28;20021;-72
2021/12/15 06:39:14;;;;;;;3.63;0.80;;;;;;;;;;5071443;28;20384;-72
2021/12/15 06:41:41;;;;;;;4.00;0.95;;;;;;;;;;5072612;28;20512;-72
2021/12/15 06:44:10;;;;;;;5.57;0.93;;;;;;;;;;5071290;28;20020;-72
2021/12/15 06:59:57;;;;;;;3.97;0.90;;;;;;;;;;5072854;28;20029;-72
2021/12/15 07:02:24;;;;;;;3.65;0.95;;;;;;;;;;5072370;28;20364;-73
2021/12/15 07:04:51;;;;;;;7.00;1.38;;;;;;;;;;5071150;28;20029;-72
2021/12/15 07:07:21;;;;;;;8.00;1.42;;;;;;;;;;5072172;28;20036;-72
2021/12/15 07:09:48;;;;;;;4.28;1.08;;;;;;;;;;5072558;28;20048;-72
2021/12/15 07:12:15;;;;;;;9.27;1.48;;;;;;;;;;5072367;28;20476;-72
2021/12/15 07:14:43;;;;;;;7.05;1.30;;;;;;;;;;5072426;28;20024;-72
2021/12/15 07:17:18;;;;;;;4.20;1.10;;;;;;;;;;5070849;28;20481;-73
2021/12/15 07:20:05;;;;;;;4.60;1.13;;;;;;;;;;5072163;28;20116;-73
2021/12/15 07:22:43;;;;;;;;;;;;;;;;;;5072583;28;20052;-74
2021/12/15 07:25:15;;;;;;;5.65;1.25;;;;;;;;;;5070982;28;19912;-74
2021/12/15 07:27:42;;;;;;;6.30;1.10;;;;;;;;;;5070703;28;20119;-74
2021/12/15 07:30:10;;;;;;;5.45;1.30;;;;;;;;;;5072308;28;20109;-73
2021/12/15 07:32:37;;;;;;;3.00;0.90;;;;;;;;;;5072097;28;20028;-74
2021/12/15 07:35:06;;;;;;;4.85;1.20;;;;;;;;;;5072141;28;20024;-73
2021/12/15 07:37:33;;;;;;;5.03;1.33;;;;;;;;;;5072043;28;20123;-73
2021/12/15 07:40:00;;;;;;;4.22;0.93;;;;;;;;;;5070705;28;20021;-73
2021/12/15 07:42:36;;;;;;;9.02;2.63;;;;;;;;;;5070624;28;20024;-73
2021/12/15 07:45:06;;;;;;;4.07;1.20;;;;;;;;;;5074377;28;20495;-73
2021/12/15 07:47:34;;;;;;;4.47;1.48;;;;;;;;;;5074186;28;20028;-73
2021/12/15 07:50:02;;;;;;;6.93;1.55;;;;;;;;;;5074444;28;20400;-72
2021/12/15 07:52:30;;;;;;;4.60;1.02;;;;;;;;;;5075824;28;20020;-71
2021/12/15 07:54:57;;;;;;;4.75;1.35;;;;;;;;;;5075686;28;20358;-72
2021/12/15 07:57:28;;;;;;;4.65;1.25;;;;;;;;;;5075604;28;20491;-72
2021/12/15 07:59:58;;;;;;;5.07;1.08;;;;;;;;;;5075754;28;20017;-72
2021/12/15 08:02:26;;;;;;;7.88;1.50;;;;;;;;;;5075895;28;20338;-71
2021/12/15 08:04:53;;;;;;;7.78;1.42;;;;;;;;;;5075400;28;20104;-70
2021/12/15 08:07:21;;;;;;;7.32;1.45;;;;;;;;;;5075532;28;20078;-70
2021/12/15 08:09:49;;;;;;;7.38;1.58;;;;;;;;;;5075294;28;20477;-70
2021/12/15 08:12:16;;;;;;;8.73;1.55;;;;;;;;;;5075234;28;20059;-70
2021/12/15 08:14:44;;;;;;;7.13;1.60;;;;;;;;;;5075329;28;20013;-70
2021/12/15 08:17:11;;;;;;;6.28;1.85;;;;;;;;;;5075304;28;20396;-69
2021/12/15 08:19:38;;;;;;;8.13;1.63;;;;;;;;;;5075088;28;20101;-70
2021/12/15 08:22:05;;;;;;;5.13;1.10;;;;;;;;;;5075003;28;20098;-70
2021/12/15 08:24:32;;;;;;;9.18;2.13;;;;;;;;;;5073679;28;20051;-69
2021/12/15 08:27:00;;;;;;;6.68;2.28;;;;;;;;;;5073682;28;20146;-70
2021/12/15 08:29:27;;;;;;;10.40;2.33;;;;;;;;;;5073490;28;20021;-70
2021/12/15 08:31:54;;;;;;;10.98;2.30;;;;;;;;;;5074880;28;20039;-69
2021/12/15 08:34:21;;;;;;;7.43;1.48;;;;;;;;;;5074962;28;20095;-70
2021/12/15 08:36:52;;;;;;;6.32;1.88;;;;;;;;;;5074949;28;20553;-71
2021/12/15 08:39:19;;;;;;;12.43;2.47;;;;;;;;;;5074717;28;20020;-71
2021/12/15 08:41:46;;;;;;;9.60;2.30;;;;;;;;;;5074899;28;20108;-70
2021/12/15 08:44:13;;;;;;;8.70;2.03;;;;;;;;;;5074699;28;20146;-72
2021/12/15 08:46:42;;;;;;;5.15;1.63;;;;;;;;;;5074658;28;20095;-71
2021/12/15 08:49:13;;;;;;;9.77;1.73;;;;;;;;;;5074649;28;20020;-72
2021/12/15 08:51:40;;;;;;;7.53;2.05;;;;;;;;;;5074847;28;20473;-72
2021/12/15 08:54:09;;;;;;;6.63;1.55;;;;;;;;;;5072716;28;20029;-72
2021/12/15 08:56:37;;;;;;;11.00;1.73;;;;;;;;;;5074125;28;20472;-72
2021/12/15 08:59:06;;;;;;;6.85;2.30;;;;;;;;;;5074389;28;20016;-72
2021/12/15 09:01:36;;;;;;;12.15;4.68;;;;;;;;;;5073447;28;20489;-76
2021/12/15 09:04:04;;;;;;;14.68;3.90;;;;;;;;;;5074378;28;20023;-71
2021/12/15 09:06:32;;;;;;;4.25;1.92;;;;;;;;;;5074337;28;20024;-70
2021/12/15 09:08:59;;;;;;;5.70;1.30;;;;;;;;;;5074268;28;20028;-70
2021/12/15 09:11:27;;;;;;;4.07;1.42;;;;;;;;;;5074062;28;20033;-70
2021/12/15 09:13:56;;;;;;;5.32;1.55;;;;;;;;;;5074295;28;20058;-70
2021/12/15 09:16:23;;;;;;;5.72;1.80;;;;;;;;;;5074079;28;20016;-72
2021/12/15 09:18:51;;;;;;;13.93;2.35;;;;;;;;;;5072700;28;20024;-73
2021/12/15 09:21:19;;;;;;;9.25;2.10;;;;;;;;;;5072578;28;20041;-73
2021/12/15 09:23:46;;;;;;;8.63;1.90;;;;;;;;;;5074032;28;20024;-72
2021/12/15 09:26:14;;;;;;;10.57;1.92;;;;;;;;;;5073997;28;20361;-71
2021/12/15 09:28:41;;;;;;;10.20;2.45;;;;;;;;;;5073959;28;20474;-74
2021/12/15 09:31:10;;;;;;;9.00;2.33;;;;;;;;;;5072470;28;20059;-73
2021/12/15 09:33:39;;;;;;;9.85;2.05;;;;;;;;;;5073929;28;20028;-72
2021/12/15 09:36:07;;;;;;;8.00;2.20;;;;;;;;;;5073840;28;20028;-73
2021/12/15 09:38:34;;;;;;;9.20;2.47;;;;;;;;;;5073691;28;20032;-72
2021/12/15 09:41:02;;;;;;;10.52;2.85;;;;;;;;;;5073701;28;20485;-73
2021/12/15 09:43:31;;;;;;;11.10;2.50;;;;;;;;;;5072306;28;20028;-73
2021/12/15 09:46:12;;;;;;;7.97;2.90;;;;;;;;;;5073614;28;20024;-72
2021/12/15 10:05:13;;;;;;;;;;;;;;;;;;5073793;28;20036;-71
2021/12/15 10:18:42;;;;;;;14.77;3.28;;;;;;;;;;5073369;28;20036;-74
2021/12/15 10:21:19;;;;;;;14.55;3.55;;;;;;;;;;5071594;28;20520;-74
2021/12/15 10:23:49;;;;;;;16.48;3.65;;;;;;;;;;5071694;28;20214;-74
2021/12/15 10:26:17;;;;;;;12.25;3.33;;;;;;;;;;5071695;28;20025;-74
2021/12/15 10:28:49;;;;;;;10.23;3.70;;;;;;;;;;5073027;28;20032;-74
2021/12/15 10:31:17;;;;;;;11.70;4.20;;;;;;;;;;5071549;28;20032;-74
2021/12/15 10:33:46;;;;;;;11.30;3.17;;;;;;;;;;5072984;28;20017;-74
2021/12/15 10:36:19;;;;;;;10.93;3.17;;;;;;;;;;5071553;28;20021;-74
2021/12/15 10:38:50;;;;;;;14.40;3.47;;;;;;;;;;5071394;28;20024;-74
2021/12/15 10:41:32;;;;;;;14.63;3.35;;;;;;;;;;5071512;28;20035;-74
2021/12/15 10:44:07;;;;;;;14.05;3.25;;;;;;;;;;5071437;28;20056;-74
2021/12/15 10:46:43;;;;;;;16.48;3.33;;;;;;;;;;5071398;28;20029;-73
2021/12/15 10:49:13;;;;;;;13.30;3.50;;;;;;;;;;5072870;28;20370;-73
2021/12/15 10:51:47;;;;;;;13.80;3.33;;;;;;;;;;5071228;28;20048;-72
2021/12/15 10:54:23;;;;;;;13.07;3.05;;;;;;;;;;5071366;28;20052;-73
2021/12/15 10:57:10;;;;;;;14.50;3.40;;;;;;;;;;5071312;28;20116;-72
2021/12/15 10:59:42;;;;;;;14.18;3.28;;;;;;;;;;5071291;28;20054;-73
2021/12/15 11:02:12;;;;;;;16.92;3.47;;;;;;;;;;5071187;28;20055;-73
2021/12/15 11:04:39;;;;;;;12.45;3.33;;;;;;;;;;5072653;28;20025;-74
2021/12/15 11:07:09;;;;;;;15.30;3.40;;;;;;;;;;5072663;28;20048;-73
2021/12/15 11:09:45;;;;;;;18.08;3.75;;;;;;;;;;5071092;28;20167;-73
2021/12/15 11:12:12;;;;;;;17.58;3.85;;;;;;;;;;5071200;28;20029;-74
2021/12/15 11:14:41;;;;;;;18.15;4.28;;;;;;;;;;5072551;28;20028;-75
2021/12/15 11:17:18;;;;;;;16.50;3.80;;;;;;;;;;5071227;28;20384;-73
2021/12/15 11:19:50;;;;;;;21.13;4.00;;;;;;;;;;5074447;28;20496;-73
2021/12/15 11:22:38;;;;;;;20.83;4.47;;;;;;;;;;5076450;28;20110;-73
2021/12/15 11:25:18;;;;;;;23.58;4.38;;;;;;;;;;5076416;28;20021;-73
2021/12/15 11:27:47;;;;;;;17.55;3.60;;;;;;;;;;5076420;28;20388;-74
2021/12/15 11:30:16;;;;;;;19.52;4.07;;;;;;;;;;5074937;28;20396;-74
2021/12/15 11:32:46;;;;;;;25.02;4.82;;;;;;;;;;5074793;28;20058;-74
2021/12/15 11:35:17;;;;;;;19.90;4.20;;;;;;;;;;5075058;28;20040;-74
2021/12/15 11:37:50;;;;;;;22.92;4.28;;;;;;;;;;5074796;28;20028;-73
2021/12/15 11:40:18;;;;;;;31.20;6.22;;;;;;;;;;5074733;28;20039;-74
2021/12/15 11:42:47;;;;;;;26.77;5.30;;;;;;;;;;5076086;28;20069;-74
2021/12/15 11:45:17;;;;;;;18.17;3.80;;;;;;;;;;5058276;28;20120;-74
2021/12/15 11:47:44;;;;;;;24.30;5.13;;;;;;;;;;5076029;28;20024;-74
2021/12/15 11:50:14;;;;;;;19.63;4.65;;;;;;;;;;5074520;28;20036;-75
2021/12/15 11:52:42;;;;;;;24.13;4.95;;;;;;;;;;5075832;28;20052;-74
2021/12/15 11:55:21;;;;;;;21.40;4.88;;;;;;;;;;5075902;28;20016;-73
2021/12/15 11:57:49;;;;;;;25.65;4.68;;;;;;;;;;5074395;28;20016;-73
2021/12/15 12:00:17;;;;;;;18.98;4.85;;;;;;;;;;5075747;28;20028;-73
2021/12/15 12:02:51;;;;;;;19.52;4.40;;;;;;;;;;5074255;28;20489;-73
2021/12/15 12:05:37;;;;;;;19.67;4.65;;;;;;;;;;5075648;28;20381;-73
2021/12/15 12:08:07;;;;;;;24.30;5.03;;;;;;;;;;5075544;28;20025;-74
2021/12/15 12:10:47;;;;;;;20.45;4.50;;;;;;;;;;5074330;28;20033;-73
2021/12/15 12:13:27;;;;;;;22.07;4.70;;;;;;;;;;5075542;28;20070;-73
2021/12/15 12:15:56;;;;;;;16.58;5.10;;;;;;;;;;5074184;28;20021;-73
2021/12/15 12:18:25;;;;;;;18.98;4.57;;;;;;;;;;5073974;28;20020;-73
2021/12/15 12:20:56;;;;;;;22.30;5.65;;;;;;;;;;5073583;28;20557;-73
2021/12/15 12:23:25;;;;;;;19.42;4.43;;;;;;;;;;5075369;28;20027;-74
2021/12/15 12:25:55;;;;;;;24.80;5.35;;;;;;;;;;5073855;28;20435;-73
2021/12/15 12:28:24;;;;;;;20.75;4.78;;;;;;;;;;5073821;28;20101;-74
2021/12/15 12:30:53;;;;;;;25.17;4.65;;;;;;;;;;5073743;28;20159;-72
2021/12/15 12:33:22;;;;;;;21.88;4.53;;;;;;;;;;5057199;28;20032;-73
2021/12/15 12:35:54;;;;;;;22.55;4.32;;;;;;;;;;5075023;28;20020;-73
2021/12/15 12:38:23;;;;;;;23.95;4.85;;;;;;;;;;5073570;28;20420;-72
2021/12/15 12:40:57;;;;;;;24.05;5.60;;;;;;;;;;5074979;28;20063;-73
2021/12/15 12:43:27;;;;;;;21.15;4.75;;;;;;;;;;5074934;28;20024;-73
2021/12/15 12:45:55;;;;;;;20.58;4.85;;;;;;;;;;5074858;28;20109;-74
2021/12/15 12:48:44;;;;;;;19.98;5.57;;;;;;;;;;5074646;28;20076;-74
2021/12/15 12:59:49;;;;;;;21.67;5.03;;;;;;;;;;5074880;28;20134;-73
2021/12/15 13:02:39;;;;;;;19.63;4.70;;;;;;;;;;5074516;28;20480;-73
2021/12/15 13:05:08;;;;;;;23.83;5.32;;;;;;;;;;5074618;28;20024;-74
2021/12/15 13:07:48;;;;;;;14.57;4.22;;;;;;;;;;5073059;28;20540;-74
2021/12/15 13:10:15;;;;;;;;;;;;;;;;;;5074889;28;20025;-74
2021/12/15 13:12:47;;;;;;;19.15;5.30;;;;;;;;;;5072967;28;20386;-74
2021/12/15 13:15:22;;;;;;;21.10;4.85;;;;;;;;;;5073010;28;20017;-73
2021/12/15 13:18:13;;;;;;;20.48;4.90;;;;;;;;;;5074151;28;20013;-73
2021/12/15 13:20:41;;;;;;;18.90;4.85;;;;;;;;;;5072621;28;20097;-73
2021/12/15 13:23:29;;;;;;;25.20;5.20;;;;;;;;;;5072716;28;20020;-72
2021/12/15 13:28:49;;;;;;;20.52;5.20;;;;;;;;;;5074073;28;20027;-73
2021/12/15 13:31:27;;;;;;;24.85;5.15;;;;;;;;;;5073937;28;20048;-73
2021/12/15 13:33:57;;;;;;;23.27;4.85;;;;;;;;;;5072512;28;20438;-75
2021/12/15 13:36:31;;;;;;;21.50;4.82;;;;;;;;;;5072522;28;20020;-73
2021/12/15 13:39:04;;;;;;;23.20;5.18;;;;;;;;;;5072488;28;20059;-73
2021/12/15 13:41:39;;;;;;;23.67;5.18;;;;;;;;;;5073441;28;20031;-73
2021/12/15 13:44:27;;;;;;;20.77;4.53;;;;;;;;;;5072321;28;20404;-73
2021/12/15 13:47:09;;;;;;;22.20;5.40;;;;;;;;;;5073703;28;20431;-73
2021/12/15 13:49:55;;;;;;;23.48;5.07;;;;;;;;;;5072254;28;20374;-72
2021/12/15 13:52:28;;;;;;;19.58;4.72;;;;;;;;;;5073568;28;20504;-72
2021/12/15 13:54:58;;;;;;;22.67;5.65;;;;;;;;;;5073566;28;20023;-73
2021/12/15 13:57:31;;;;;;;19.33;4.50;;;;;;;;;;5072147;28;20542;-73
2021/12/15 14:00:07;;;;;;;22.05;5.32;;;;;;;;;;5072179;28;20439;-72
2021/12/15 14:02:36;;;;;;;26.23;4.05;;;;;;;;;;5072069;28;20028;-73
2021/12/15 14:05:10;;;;;;;17.98;3.83;;;;;;;;;;5073356;28;20074;-73
2021/12/15 14:07:48;;;;;;;20.00;5.07;;;;;;;;;;5072008;28;20051;-72
2021/12/15 14:10:20;;;;;;;17.40;4.07;;;;;;;;;;5073369;28;20024;-73
2021/12/15 14:12:48;;;;;;;21.42;4.13;;;;;;;;;;5071821;28;20489;-73
2021/12/15 14:15:17;;;;;;;18.85;4.38;;;;;;;;;;5071823;28;20021;-73
2021/12/15 14:17:44;;;;;;;23.60;4.72;;;;;;;;;;5073215;28;20017;-74
2021/12/15 14:20:15;;;;;;;18.02;4.07;;;;;;;;;;5073033;28;20040;-74
2021/12/15 14:22:42;;;;;;;20.15;5.03;;;;;;;;;;5071825;28;20028;-73
2021/12/15 14:25:10;;;;;;;15.38;4.10;;;;;;;;;;5073088;28;20063;-74
2021/12/15 14:27:38;;;;;;;17.33;4.10;;;;;;;;;;5071723;28;20485;-74
2021/12/15 14:30:08;;;;;;;22.33;4.38;;;;;;;;;;5073165;28;20025;-73
2021/12/15 14:32:36;;;;;;;15.73;3.75;;;;;;;;;;5073117;28;20085;-73
2021/12/15 14:35:03;;;;;;;18.27;4.30;;;;;;;;;;5073096;28;20519;-74
2021/12/15 14:37:30;;;;;;;24.67;4.65;;;;;;;;;;5073054;28;20024;-74
2021/12/15 14:39:57;;;;;;;12.68;3.63;;;;;;;;;;5071674;28;20384;-74
2021/12/15 14:42:27;;;;;;;19.48;3.72;;;;;;;;;;5073003;28;20155;-74
2021/12/15 14:44:57;;;;;;;14.60;3.85;;;;;;;;;;5071561;28;20111;-74
2021/12/15 14:47:26;;;;;;;19.30;5.28;;;;;;;;;;5072995;28;20066;-74
2021/12/15 14:49:58;;;;;;;21.40;4.60;;;;;;;;;;5072953;28;20024;-74
2021/12/15 14:52:30;;;;;;;18.77;4.35;;;;;;;;;;5072763;28;20025;-73
2021/12/15 14:54:59;;;;;;;19.73;3.83;;;;;;;;;;5075607;28;20021;-74
2021/12/15 14:57:31;;;;;;;12.32;3.13;;;;;;;;;;5075633;28;20032;-74
2021/12/15 15:00:05;;;;;;;18.25;4.30;;;;;;;;;;5075621;28;20522;-73
2021/12/15 15:02:34;;;;;;;18.30;4.15;;;;;;;;;;5075605;28;20032;-73
2021/12/15 15:05:07;;;;;;;17.40;3.80;;;;;;;;;;5076856;28;20074;-74
2021/12/15 15:07:36;;;;;;;21.02;3.65;;;;;;;;;;5076832;28;20024;-74
2021/12/15 15:10:06;;;;;;;15.38;3.78;;;;;;;;;;5075398;28;20436;-74
2021/12/15 15:12:35;;;;;;;15.98;3.40;;;;;;;;;;5076722;28;20024;-74
2021/12/15 15:15:04;;;;;;;18.60;4.07;;;;;;;;;;5076623;28;20021;-74
2021/12/15 15:17:33;;;;;;;17.80;3.83;;;;;;;;;;5075181;28;20397;-74
2021/12/15 15:20:12;;;;;;;15.48;3.50;;;;;;;;;;5076554;28;20041;-73
2021/12/15 15:22:39;;;;;;;13.70;3.38;;;;;;;;;;5075064;28;20028;-74
2021/12/15 15:25:08;;;;;;;20.88;3.80;;;;;;;;;;5076416;28;20074;-73
2021/12/15 15:27:47;;;;;;;17.70;4.10;;;;;;;;;;5076386;28;20188;-73
2021/12/15 15:30:19;;;;;;;14.23;4.18;;;;;;;;;;5075075;28;20033;-74
2021/12/15 15:32:48;;;;;;;15.55;4.20;;;;;;;;;;5074885;28;20033;-74
2021/12/15 15:35:18;;;;;;;16.98;3.63;;;;;;;;;;5076373;28;20020;-73
2021/12/15 15:37:46;;;;;;;14.85;3.35;;;;;;;;;;5076274;28;20031;-73
2021/12/15 15:40:29;;;;;;;15.18;4.22;;;;;;;;;;5074017;28;20393;-74
2021/12/15 15:43:00;;;;;;;14.73;4.50;;;;;;;;;;5074805;28;20028;-73
2021/12/15 15:45:29;;;;;;;17.17;3.97;;;;;;;;;;5074720;28;20020;-73
2021/12/15 15:47:57;;;;;;;14.85;4.13;;;;;;;;;;5074628;28;20077;-73
2021/12/15 15:50:25;;;;;;;16.70;3.80;;;;;;;;;;5076035;28;20025;-73
2021/12/15 15:52:54;;;;;;;15.77;3.60;;;;;;;;;;5074518;28;20024;-73
2021/12/15 15:55:22;;;;;;;16.63;4.10;;;;;;;;;;5074490;28;20066;-74
2021/12/15 15:57:51;;;;;;;19.90;3.85;;;;;;;;;;5075874;28;20078;-74
2021/12/15 16:00:19;;;;;;;13.13;3.97;;;;;;;;;;5075779;28;20347;-74
2021/12/15 16:02:47;;;;;;;20.17;4.50;;;;;;;;;;5074388;28;20028;-74
2021/12/15 16:05:15;;;;;;;16.98;3.55;;;;;;;;;;5075481;28;20044;-74
2021/12/15 16:07:42;;;;;;;14.52;3.30;;;;;;;;;;5074271;28;20028;-73
2021/12/15 16:10:10;;;;;;;14.45;3.10;;;;;;;;;;5075706;28;20020;-74
2021/12/15 16:12:39;;;;;;;14.43;3.10;;;;;;;;;;5075494;28;20016;-73
2021/12/15 16:15:08;;;;;;;16.20;3.53;;;;;;;;;;5074169;28;20541;-74
2021/12/15 16:17:53;;;;;;;12.00;3.45;;;;;;;;;;5074147;28;20021;-73